Time;durP1;ratioP1;P1;durP2;ratioP2;P2;SDS_P1;SDS_P2;PMS_P1;PMS_P2;Temp;Humidity;BMP_temperature;BMP_pressure;BME280_temperature;BME280_humidity;BME280_pressure;Samples;Min_cycle;Max_cycle;Signal;HPM_P1;HPM_P2
2021/06/12 00:02:20;;;;;;;;;;;20.00;99.90;;;;;;5068610;28;20290;-74
2021/06/12 00:04:46;;;;;;;;;;;20.00;99.90;;;;;;5068794;28;19912;-74
2021/06/12 00:07:11;;;;;;;;;;;20.00;99.90;;;;;;5061320;28;19916;-75
2021/06/12 00:09:37;;;;;;;;;;;20.00;99.90;;;;;;5069995;28;19915;-75
2021/06/12 00:12:02;;;;;;;;;;;19.90;99.90;;;;;;5067965;28;19909;-75
2021/06/12 00:14:28;;;;;;;;;;;19.90;99.90;;;;;;5069292;28;19908;-74
2021/06/12 00:16:53;;;;;;;;;;;19.90;99.90;;;;;;5069614;28;19914;-75
2021/06/12 00:19:19;;;;;;;;;;;19.90;99.90;;;;;;5069709;28;19923;-75
2021/06/12 00:21:45;;;;;;;;;;;19.90;99.90;;;;;;5066148;28;19915;-75
2021/06/12 00:24:11;;;;;;;;;;;19.90;99.90;;;;;;5059083;28;19909;-75
2021/06/12 00:26:37;;;;;;;;;;;19.90;99.90;;;;;;5069341;28;19931;-75
2021/06/12 00:29:02;;;;;;;;;;;19.90;99.90;;;;;;5067370;28;19915;-75
2021/06/12 00:31:28;;;;;;;;;;;19.90;99.90;;;;;;5059153;28;19908;-74
2021/06/12 00:33:53;;;;;;;;;;;19.90;99.90;;;;;;5065777;28;20373;-76
2021/06/12 00:36:22;;;;;;;;;;;19.90;99.90;;;;;;5069168;28;19919;-75
2021/06/12 00:38:48;;;;;;;;;;;19.90;99.90;;;;;;5064159;28;19983;-75
2021/06/12 00:41:14;;;;;;;;;;;19.90;99.90;;;;;;5062586;28;20375;-75
2021/06/12 00:43:41;;;;;;;;;;;20.00;99.90;;;;;;5061825;28;19920;-75
2021/06/12 00:46:07;;;;;;;;;;;20.00;99.90;;;;;;5062091;28;20355;-75
2021/06/12 00:48:32;;;;;;;;;;;19.90;99.90;;;;;;5071442;28;20473;-74
2021/06/12 00:50:57;;;;;;;;;;;20.00;99.90;;;;;;5063930;28;19915;-75
2021/06/12 00:53:40;;;;;;;;;;;19.90;99.90;;;;;;5068357;28;19916;-75
2021/06/12 00:56:07;;;;;;;;;;;19.90;99.90;;;;;;5061643;28;19928;-75
2021/06/12 00:58:33;;;;;;;;;;;19.90;99.90;;;;;;5063350;28;19962;-74
2021/06/12 01:00:59;;;;;;;;;;;20.00;99.90;;;;;;5062845;28;19913;-75
2021/06/12 01:03:51;;;;;;;;;;;20.00;99.90;;;;;;5070793;28;19912;-74
2021/06/12 01:06:20;;;;;;;;;;;20.00;99.90;;;;;;5065831;28;19912;-75
2021/06/12 01:08:45;;;;;;;;;;;19.90;99.90;;;;;;5064476;28;19916;-75
2021/06/12 01:11:11;;;;;;;;;;;19.90;99.90;;;;;;5067440;28;19908;-75
2021/06/12 01:14:06;;;;;;;;;;;19.90;99.90;;;;;;5068335;28;19909;-75
2021/06/12 01:16:39;;;;;;;;;;;19.90;99.90;;;;;;5051997;28;19916;-75
2021/06/12 01:19:11;;;;;;;;;;;19.90;99.90;;;;;;5068181;28;20413;-75
2021/06/12 01:21:39;;;;;;;;;;;19.90;99.90;;;;;;5067805;28;19909;-74
2021/06/12 01:24:14;;;;;;;;;;;19.90;99.90;;;;;;5063109;28;20359;-74
2021/06/12 01:26:43;;;;;;;;;;;19.90;99.90;;;;;;5070940;28;19995;-75
2021/06/12 01:29:20;;;;;;;;;;;19.90;99.90;;;;;;5064425;28;19916;-75
2021/06/12 01:31:51;;;;;;;;;;;19.90;99.90;;;;;;5069103;28;20078;-75
2021/06/12 01:34:18;;;;;;;;;;;19.90;99.90;;;;;;5071433;28;19961;-74
2021/06/12 01:36:43;;;;;;;;;;;19.90;99.90;;;;;;5067562;28;19916;-74
2021/06/12 01:39:09;;;;;;;;;;;19.90;99.90;;;;;;5071792;28;19913;-75
2021/06/12 01:41:36;;;;;;;;;;;19.90;99.90;;;;;;5072684;28;19923;-74
2021/06/12 01:44:01;;;;;;;;;;;19.90;99.90;;;;;;5072328;28;19981;-75
2021/06/12 01:46:27;;;;;;;;;;;19.90;99.90;;;;;;5062006;28;19920;-75
2021/06/12 01:48:55;;;;;;;;;;;19.90;99.90;;;;;;5071902;28;19922;-74
2021/06/12 01:51:21;;;;;;;;;;;19.90;99.90;;;;;;5072808;28;20469;-74
2021/06/12 01:53:50;;;;;;;;;;;20.00;99.90;;;;;;5072358;28;19914;-75
2021/06/12 01:56:16;;;;;;;;;;;19.90;99.90;;;;;;5062611;28;19921;-74
2021/06/12 01:58:43;;;;;;;;;;;19.90;99.90;;;;;;5068731;28;20000;-74
2021/06/12 02:01:11;;;;;;;;;;;19.90;99.90;;;;;;5068771;28;20003;-75
2021/06/12 02:03:38;;;;;;;;;;;19.90;99.90;;;;;;5067007;28;19912;-74
2021/06/12 02:06:04;;;;;;;;;;;19.90;99.90;;;;;;5064390;28;20450;-74
2021/06/12 02:08:31;;;;;;;;;;;20.00;99.90;;;;;;5067019;28;19973;-74
2021/06/12 02:10:57;;;;;;;;;;;20.00;99.90;;;;;;5069007;28;19908;-74
2021/06/12 02:13:23;;;;;;;;;;;20.00;99.90;;;;;;5064392;28;20485;-74
2021/06/12 02:15:51;;;;;;;;;;;20.00;99.90;;;;;;5067039;28;19908;-74
2021/06/12 02:18:17;;;;;;;;;;;19.90;99.90;;;;;;5064673;28;19912;-74
2021/06/12 02:20:43;;;;;;;;;;;19.90;99.90;;;;;;5068119;28;20445;-75
2021/06/12 02:23:09;;;;;;;;;;;19.90;99.90;;;;;;5069668;28;20122;-74
2021/06/12 02:25:34;;;;;;;;;;;19.90;99.90;;;;;;5069371;28;20056;-74
2021/06/12 02:28:05;;;;;;;;;;;20.00;99.90;;;;;;5067882;28;20402;-74
2021/06/12 02:30:32;;;;;;;;;;;20.00;99.90;;;;;;5065244;28;19908;-74
2021/06/12 02:33:02;;;;;;;;;;;20.10;99.90;;;;;;5067285;28;20289;-74
2021/06/12 02:35:28;;;;;;;;;;;20.10;99.90;;;;;;5065896;28;19914;-74
2021/06/12 02:37:53;;;;;;;;;;;20.20;99.90;;;;;;5070318;28;19919;-75
2021/06/12 02:40:19;;;;;;;;;;;20.20;99.90;;;;;;5060777;28;19912;-74
2021/06/12 02:42:44;;;;;;;;;;;20.30;99.90;;;;;;5060097;28;19912;-75
2021/06/12 02:45:10;;;;;;;;;;;20.30;99.90;;;;;;5063802;28;20003;-75
2021/06/12 02:47:39;;;;;;;;;;;20.40;99.90;;;;;;5067729;28;19912;-74
2021/06/12 02:50:06;;;;;;;;;;;20.40;99.90;;;;;;5068355;28;19913;-74
2021/06/12 02:52:33;;;;;;;;;;;20.40;99.90;;;;;;5069794;28;20448;-74
2021/06/12 02:55:01;;;;;;;;;;;20.40;99.90;;;;;;5064288;28;19940;-75
2021/06/12 02:57:26;;;;;;;;;;;20.50;99.90;;;;;;5059694;28;39400;-74
2021/06/12 02:59:52;;;;;;;;;;;20.50;99.90;;;;;;5062525;28;19917;-74
2021/06/12 03:02:18;;;;;;;;;;;20.50;99.90;;;;;;5068730;28;19916;-74
2021/06/12 03:04:44;;;;;;;;;;;20.50;99.90;;;;;;5066451;28;20422;-74
2021/06/12 03:07:13;;;;;;;;;;;20.40;99.60;;;;;;5066313;28;19961;-75
2021/06/12 03:09:39;;;;;;;;;;;20.50;99.90;;;;;;5070248;28;19913;-74
2021/06/12 03:12:06;;;;;;;;;;;20.50;99.60;;;;;;5059545;28;20440;-74
2021/06/12 03:14:32;;;;;;;;;;;20.50;99.50;;;;;;5068209;28;19908;-73
2021/06/12 03:16:58;;;;;;;;;;;20.50;99.80;;;;;;5067324;28;19931;-74
2021/06/12 03:19:24;;;;;;;;;;;20.40;99.70;;;;;;5063730;28;19908;-74
2021/06/12 03:21:50;;;;;;;;;;;20.40;99.70;;;;;;5070406;28;20329;-74
2021/06/12 03:24:16;;;;;;;;;;;20.40;99.50;;;;;;5064493;28;19916;-74
2021/06/12 03:26:41;;;;;;;;;;;20.40;99.90;;;;;;5067766;28;19919;-74
2021/06/12 03:29:07;;;;;;;;;;;20.40;99.90;;;;;;5067604;28;19908;-74
2021/06/12 03:31:33;;;;;;;;;;;20.40;99.90;;;;;;5069059;28;19935;-75
2021/06/12 03:33:59;;;;;;;;;;;20.30;99.90;;;;;;5068707;28;20748;-74
2021/06/12 03:36:25;;;;;;;;;;;20.30;99.90;;;;;;5066814;28;19971;-74
2021/06/12 03:38:51;;;;;;;;;;;20.30;99.90;;;;;;5061585;28;19917;-74
2021/06/12 03:41:17;;;;;;;;;;;20.30;99.90;;;;;;5068483;28;19919;-74
2021/06/12 03:43:42;;;;;;;;;;;20.40;99.90;;;;;;5070318;28;19912;-74
2021/06/12 03:46:08;;;;;;;;;;;20.30;99.90;;;;;;5068685;28;20324;-74
2021/06/12 03:48:34;;;;;;;;;;;20.30;99.90;;;;;;5068493;28;19908;-74
2021/06/12 03:51:00;;;;;;;;;;;20.30;99.90;;;;;;5062624;28;19908;-75
2021/06/12 03:53:43;;;;;;;;;;;20.30;99.90;;;;;;5070070;28;19916;-75
2021/06/12 03:56:09;;;;;;;;;;;20.30;99.90;;;;;;5071520;28;19917;-75
2021/06/12 03:58:34;;;;;;;;;;;20.30;99.90;;;;;;5068152;28;19977;-74
2021/06/12 04:01:00;;;;;;;;;;;20.20;99.90;;;;;;5067472;28;20112;-74
2021/06/12 04:03:25;;;;;;;;;;;20.30;99.90;;;;;;5067008;28;20450;-74
2021/06/12 04:05:51;;;;;;;;;;;20.30;99.90;;;;;;5063639;28;20402;-74
2021/06/12 04:08:43;;;;;;;;;;;20.30;99.90;;;;;;5066132;28;19939;-74
2021/06/12 04:11:09;;;;;;;;;;;20.30;99.90;;;;;;5065322;28;19920;-74
2021/06/12 04:13:34;;;;;;;;;;;20.30;99.90;;;;;;5058713;28;20340;-75
2021/06/12 04:16:00;;;;;;;;;;;20.30;99.90;;;;;;5062934;28;19909;-74
2021/06/12 04:18:25;;;;;;;;;;;20.40;99.90;;;;;;5068112;28;20425;-74
2021/06/12 04:20:51;;;;;;;;;;;20.40;99.90;;;;;;5066780;28;19917;-74
2021/06/12 04:23:17;;;;;;;;;;;20.40;99.90;;;;;;5066927;28;19912;-75
2021/06/12 04:25:42;;;;;;;;;;;20.40;99.90;;;;;;5065730;28;20359;-74
2021/06/12 04:28:08;;;;;;;;;;;20.40;99.90;;;;;;5068832;28;19989;-74
2021/06/12 04:30:34;;;;;;;;;;;20.40;99.90;;;;;;5062598;28;19912;-75
2021/06/12 04:33:00;;;;;;;;;;;20.40;99.90;;;;;;5055117;28;20663;-74
2021/06/12 04:35:28;;;;;;;;;;;20.50;99.90;;;;;;5068413;28;19908;-75
2021/06/12 04:37:53;;;;;;;;;;;20.50;99.90;;;;;;5061360;28;19909;-75
2021/06/12 04:40:19;;;;;;;;;;;20.50;99.90;;;;;;5068765;28;19912;-75
2021/06/12 04:42:44;;;;;;;;;;;20.50;99.90;;;;;;5067277;28;19912;-75
2021/06/12 04:45:10;;;;;;;;;;;20.50;99.90;;;;;;5063474;28;19908;-75
2021/06/12 04:47:36;;;;;;;;;;;20.50;99.90;;;;;;5066788;28;19916;-74
2021/06/12 04:50:03;;;;;;;;;;;20.60;99.90;;;;;;5064484;28;19921;-75
2021/06/12 04:52:28;;;;;;;;;;;20.60;99.90;;;;;;5058413;28;20371;-75
2021/06/12 04:54:54;;;;;;;;;;;20.60;99.90;;;;;;5066493;28;19962;-76
2021/06/12 04:57:19;;;;;;;;;;;20.60;99.90;;;;;;5065575;28;20490;-75
2021/06/12 04:59:45;;;;;;;;;;;20.70;99.90;;;;;;5065038;28;20283;-75
2021/06/12 05:02:10;;;;;;;;;;;20.70;99.90;;;;;;5067728;28;19920;-75
2021/06/12 05:04:35;;;;;;;;;;;20.60;99.90;;;;;;5066285;28;19985;-75
2021/06/12 05:07:01;;;;;;;;;;;20.60;99.90;;;;;;5065223;28;19916;-75
2021/06/12 05:09:26;;;;;;;;;;;20.60;99.90;;;;;;5066569;28;19908;-75
2021/06/12 05:11:52;;;;;;;;;;;20.60;99.90;;;;;;5066355;28;19973;-74
2021/06/12 05:14:18;;;;;;;;;;;20.60;99.90;;;;;;5051869;28;20406;-75
2021/06/12 05:16:43;;;;;;;;;;;20.60;99.90;;;;;;5066298;28;19917;-75
2021/06/12 05:19:09;;;;;;;;;;;20.70;99.90;;;;;;5079193;28;20297;-75
2021/06/12 05:21:38;;;;;;;;;;;20.80;99.90;;;;;;5061801;28;19995;-75
2021/06/12 05:24:03;;;;;;;;;;;20.80;99.90;;;;;;5067734;28;19912;-75
2021/06/12 05:26:29;;;;;;;;;;;20.90;99.90;;;;;;5059149;28;19915;-75
2021/06/12 05:28:54;;;;;;;;;;;20.90;99.90;;;;;;5066867;28;19999;-75
2021/06/12 05:31:20;;;;;;;;;;;20.90;99.90;;;;;;5062544;28;19909;-75
2021/06/12 05:33:46;;;;;;;;;;;20.90;99.90;;;;;;5068483;28;19908;-75
2021/06/12 05:36:11;;;;;;;;;;;21.00;99.90;;;;;;5067518;28;20422;-75
2021/06/12 05:38:36;;;;;;;;;;;21.00;99.90;;;;;;5066734;28;20367;-75
2021/06/12 05:41:02;;;;;;;;;;;21.00;99.90;;;;;;5062919;28;20267;-75
2021/06/12 05:43:28;;;;;;;;;;;21.10;99.90;;;;;;5058258;28;20181;-75
2021/06/12 05:45:53;;;;;;;;;;;21.20;99.90;;;;;;5061323;28;19908;-75
2021/06/12 05:48:19;;;;;;;;;;;21.20;99.90;;;;;;5062152;28;19965;-74
2021/06/12 05:50:44;;;;;;;;;;;21.20;99.90;;;;;;5072257;28;19962;-75
2021/06/12 05:53:10;;;;;;;;;;;21.30;99.40;;;;;;5068834;28;19908;-75
2021/06/12 05:55:35;;;;;;;;;;;21.20;98.90;;;;;;5067643;28;19940;-75
2021/06/12 05:58:01;;;;;;;;;;;21.30;99.50;;;;;;5071250;28;19912;-75
2021/06/12 06:00:27;;;;;;;;;;;21.30;98.50;;;;;;5070227;28;20366;-75
2021/06/12 06:02:52;;;;;;;;;;;21.30;99.30;;;;;;5072184;28;19916;-74
2021/06/12 06:05:18;;;;;;;;;;;21.30;98.80;;;;;;5068728;28;20260;-76
2021/06/12 06:07:43;;;;;;;;;;;21.30;98.80;;;;;;5069618;28;20302;-74
2021/06/12 06:10:09;;;;;;;;;;;21.20;98.80;;;;;;5068984;28;19955;-74
2021/06/12 06:12:35;;;;;;;;;;;21.20;99.20;;;;;;5065957;28;19928;-74
2021/06/12 06:15:01;;;;;;;;;;;21.10;99.10;;;;;;5062256;28;19908;-72
2021/06/12 06:17:26;;;;;;;;;;;21.00;98.90;;;;;;5058035;28;20473;-73
2021/06/12 06:19:51;;;;;;;;;;;21.00;99.10;;;;;;5068237;28;19959;-72
2021/06/12 06:22:17;;;;;;;;;;;21.00;99.20;;;;;;5066336;28;19914;-73
2021/06/12 06:24:42;;;;;;;;;;;21.10;99.00;;;;;;5068549;28;20355;-73
2021/06/12 06:27:08;;;;;;;;;;;21.00;99.20;;;;;;5059024;28;19920;-72
2021/06/12 06:29:34;;;;;;;;;;;21.10;99.20;;;;;;5051952;28;20382;-72
2021/06/12 06:31:59;;;;;;;;;;;21.10;98.80;;;;;;5069817;28;19912;-73
2021/06/12 06:34:24;;;;;;;;;;;21.20;98.70;;;;;;5069311;28;19908;-71
2021/06/12 06:36:50;;;;;;;;;;;21.20;98.80;;;;;;5070107;28;19922;-71
2021/06/12 06:39:16;;;;;;;;;;;21.20;98.50;;;;;;5066604;28;20370;-72
2021/06/12 06:41:41;;;;;;;;;;;21.10;98.30;;;;;;5070804;28;20003;-73
2021/06/12 06:44:24;;;;;;;;;;;21.10;98.50;;;;;;5060920;28;19935;-72
2021/06/12 06:46:50;;;;;;;;;;;21.20;98.80;;;;;;5060451;28;19944;-72
2021/06/12 06:49:15;;;;;;;;;;;21.30;98.20;;;;;;5066734;28;20352;-73
2021/06/12 06:51:41;;;;;;;;;;;21.30;98.20;;;;;;5063715;28;19912;-72
2021/06/12 06:54:06;;;;;;;;;;;21.30;98.60;;;;;;5059525;28;19915;-72
2021/06/12 06:56:32;;;;;;;;;;;21.30;98.00;;;;;;5059619;28;19920;-72
2021/06/12 06:58:57;;;;;;;;;;;21.40;97.80;;;;;;5064095;28;19916;-73
2021/06/12 07:01:22;;;;;;;;;;;21.40;98.10;;;;;;5060780;28;19961;-73
2021/06/12 07:03:48;;;;;;;;;;;21.50;98.60;;;;;;5070577;28;19920;-76
2021/06/12 07:06:13;;;;;;;;;;;21.50;98.70;;;;;;5064167;28;19908;-73
2021/06/12 07:08:55;;;;;;;;;;;21.60;98.20;;;;;;5062930;28;19912;-73
2021/06/12 07:11:20;;;;;;;;;;;21.60;97.80;;;;;;5062743;28;19930;-73
2021/06/12 07:13:46;;;;;;;;;;;21.50;97.50;;;;;;5068012;28;19912;-73
2021/06/12 07:16:11;;;;;;;;;;;21.40;97.60;;;;;;5062856;28;19909;-73
2021/06/12 07:18:36;;;;;;;;;;;21.50;98.40;;;;;;5066545;28;19912;-73
2021/06/12 07:21:02;;;;;;;;;;;21.50;97.80;;;;;;5070612;28;20278;-73
2021/06/12 07:23:28;;;;;;;;;;;21.50;98.30;;;;;;5068682;28;20366;-73
2021/06/12 07:25:53;;;;;;;;;;;21.60;98.20;;;;;;5069457;28;19953;-73
2021/06/12 07:28:19;;;;;;;;;;;21.50;97.90;;;;;;5064747;28;19920;-73
2021/06/12 07:30:47;;;;;;;;;;;21.50;98.30;;;;;;5068394;28;19908;-73
2021/06/12 07:33:15;;;;;;;;;;;21.50;98.90;;;;;;5065269;28;19908;-73
2021/06/12 07:35:42;;;;;;;;;;;21.40;98.30;;;;;;5065087;28;19920;-74
2021/06/12 07:38:08;;;;;;;;;;;21.40;98.70;;;;;;5061409;28;20284;-73
2021/06/12 07:40:33;;;;;;;;;;;21.30;98.60;;;;;;5067180;28;19912;-73
2021/06/12 07:42:59;;;;;;;;;;;21.40;99.00;;;;;;5069093;28;19916;-74
2021/06/12 07:45:25;;;;;;;;;;;21.40;99.10;;;;;;5057243;28;19952;-74
2021/06/12 07:47:51;;;;;;;;;;;21.50;98.80;;;;;;5060688;28;19915;-74
2021/06/12 07:50:17;;;;;;;;;;;21.50;98.90;;;;;;5057484;28;19908;-73
2021/06/12 07:52:43;;;;;;;;;;;21.50;98.80;;;;;;5064945;28;20359;-73
2021/06/12 07:55:09;;;;;;;;;;;21.60;98.40;;;;;;5067303;28;19997;-77
2021/06/12 07:57:34;;;;;;;;;;;21.60;98.30;;;;;;5061506;28;19925;-75
2021/06/12 08:00:00;;;;;;;;;;;21.60;98.20;;;;;;5071007;28;20389;-74
2021/06/12 08:02:26;;;;;;;;;;;21.60;98.10;;;;;;5066978;28;19995;-75
2021/06/12 08:04:52;;;;;;;;;;;21.60;98.20;;;;;;5069305;28;20417;-73
2021/06/12 08:07:17;;;;;;;;;;;21.60;98.10;;;;;;5066018;28;20379;-75
2021/06/12 08:09:43;;;;;;;;;;;21.60;98.20;;;;;;5063524;28;20003;-75
2021/06/12 08:12:08;;;;;;;;;;;21.60;98.00;;;;;;5068044;28;20495;-75
2021/06/12 08:14:34;;;;;;;;;;;21.60;97.80;;;;;;5067881;28;20284;-75
2021/06/12 08:16:59;;;;;;;;;;;21.60;97.60;;;;;;5062921;28;19912;-76
2021/06/12 08:19:25;;;;;;;;;;;21.60;98.20;;;;;;5058878;28;19952;-74
2021/06/12 08:21:50;;;;;;;;;;;21.60;97.50;;;;;;5067073;28;20378;-74
2021/06/12 08:24:15;;;;;;;;;;;21.50;97.70;;;;;;5067269;28;19920;-74
2021/06/12 08:26:41;;;;;;;;;;;21.60;97.40;;;;;;5064472;28;19913;-76
2021/06/12 08:29:07;;;;;;;;;;;21.70;96.60;;;;;;5063241;28;19908;-76
2021/06/12 08:31:33;;;;;;;;;;;21.80;96.50;;;;;;5068352;28;20390;-76
2021/06/12 08:33:58;;;;;;;;;;;21.90;96.00;;;;;;5062824;28;19924;-74
2021/06/12 08:36:24;;;;;;;;;;;22.00;96.20;;;;;;5062129;28;19909;-76
2021/06/12 08:38:49;;;;;;;;;;;22.00;97.20;;;;;;5059131;28;19908;-74
2021/06/12 08:41:15;;;;;;;;;;;22.10;96.70;;;;;;5063369;28;19916;-75
2021/06/12 08:43:40;;;;;;;;;;;22.20;96.10;;;;;;5065133;28;20771;-76
2021/06/12 08:46:07;;;;;;;;;;;22.20;96.70;;;;;;5058296;28;20444;-80
2021/06/12 08:48:33;;;;;;;;;;;22.10;95.90;;;;;;5065248;28;20275;-78
2021/06/12 08:50:58;;;;;;;;;;;22.00;95.80;;;;;;5064501;28;19913;-75
2021/06/12 08:53:24;;;;;;;;;;;22.00;96.60;;;;;;5066882;28;20346;-74
2021/06/12 08:55:50;;;;;;;;;;;22.00;96.30;;;;;;5065986;28;19919;-75
2021/06/12 08:58:15;;;;;;;;;;;22.00;96.00;;;;;;5067954;28;19912;-76
2021/06/12 09:00:41;;;;;;;;;;;21.90;96.40;;;;;;5061388;28;19912;-76
2021/06/12 09:03:11;;;;;;;;;;;21.70;96.80;;;;;;5064233;28;19952;-76
2021/06/12 09:05:50;;;;;;;;;;;21.50;97.40;;;;;;5065006;28;19990;-76
2021/06/12 09:08:20;;;;;;;;;;;21.50;98.10;;;;;;5065027;28;19905;-75
2021/06/12 09:10:56;;;;;;;;;;;21.30;98.90;;;;;;5063693;28;19909;-75
2021/06/12 09:13:33;;;;;;;;;;;21.20;99.60;;;;;;5062349;28;19939;-81
2021/06/12 09:16:01;;;;;;;;;;;21.10;99.90;;;;;;5064243;28;19915;-78
2021/06/12 09:18:40;;;;;;;;;;;21.00;99.90;;;;;;5064068;28;19908;-77
2021/06/12 09:21:05;;;;;;;;;;;20.80;99.90;;;;;;5068256;28;19904;-75
2021/06/12 09:23:38;;;;;;;;;;;20.70;99.90;;;;;;5069037;28;20294;-76
2021/06/12 09:26:03;;;;;;;;;;;20.50;99.90;;;;;;5053758;28;19915;-84
2021/06/12 09:28:43;;;;;;;;;;;20.30;99.90;;;;;;5070860;28;19908;-77
2021/06/12 09:31:15;;;;;;;;;;;20.20;99.90;;;;;;5070095;28;19909;-76
2021/06/12 09:33:41;;;;;;;;;;;20.00;99.90;;;;;;5071426;28;20373;-76
2021/06/12 09:36:07;;;;;;;;;;;19.90;99.90;;;;;;5062286;28;19912;-76
2021/06/12 09:38:32;;;;;;;;;;;19.80;99.90;;;;;;5065467;28;19931;-74
2021/06/12 09:40:58;;;;;;;;;;;19.70;99.90;;;;;;5069636;28;20029;-74
2021/06/12 09:43:27;;;;;;;;;;;19.70;99.90;;;;;;5070741;28;20415;-75
2021/06/12 09:45:53;;;;;;;;;;;19.70;99.90;;;;;;5069620;28;19915;-75
2021/06/12 09:48:19;;;;;;;;;;;19.70;99.90;;;;;;5066496;28;19909;-74
2021/06/12 09:50:45;;;;;;;;;;;19.80;99.90;;;;;;5072485;28;20347;-74
2021/06/12 09:53:12;;;;;;;;;;;19.80;99.90;;;;;;5071075;28;20252;-75
2021/06/12 09:55:38;;;;;;;;;;;19.90;99.90;;;;;;5071176;28;20374;-75
2021/06/12 09:58:04;;;;;;;;;;;19.90;99.90;;;;;;5071603;28;19908;-75
2021/06/12 10:00:31;;;;;;;;;;;19.90;99.90;;;;;;5069202;28;19912;-75
2021/06/12 10:02:57;;;;;;;;;;;19.90;99.90;;;;;;5064767;28;19920;-75
2021/06/12 10:05:25;;;;;;;;;;;20.00;99.90;;;;;;5058462;28;20320;-75
2021/06/12 10:07:50;;;;;;;;;;;20.00;99.90;;;;;;5070172;28;20451;-75
2021/06/12 10:10:16;;;;;;;;;;;20.10;99.90;;;;;;5067891;28;19908;-75
2021/06/12 10:12:43;;;;;;;;;;;20.20;99.90;;;;;;5069773;28;20370;-75
2021/06/12 10:15:09;;;;;;;;;;;20.10;99.90;;;;;;5071305;28;20644;-77
2021/06/12 10:17:54;;;;;;;;;;;20.20;99.90;;;;;;5080329;28;19911;-74
2021/06/12 10:20:20;;;;;;;;;;;20.20;99.90;;;;;;5070557;28;19973;-74
2021/06/12 10:22:46;;;;;;;;;;;20.30;99.90;;;;;;5071818;28;19965;-83
2021/06/12 10:25:13;;;;;;;;;;;20.40;99.90;;;;;;5068763;28;19987;-82
2021/06/12 10:27:39;;;;;;;;;;;20.50;99.90;;;;;;5071931;28;19997;-76
2021/06/12 10:30:05;;;;;;;;;;;20.70;99.90;;;;;;5075214;28;19958;-76
2021/06/12 10:32:30;;;;;;;;;;;20.90;99.90;;;;;;5054790;28;19908;-75
2021/06/12 10:34:57;;;;;;;;;;;21.10;99.90;;;;;;5064731;28;19908;-76
2021/06/12 10:37:22;;;;;;;;;;;21.50;99.90;;;;;;5067702;28;20432;-78
2021/06/12 10:40:00;;;;;;;;;;;21.70;99.90;;;;;;5070481;28;19940;-79
2021/06/12 10:42:26;;;;;;;;;;;21.90;99.90;;;;;;5065377;28;20359;-77
2021/06/12 10:45:10;;;;;;;;;;;22.10;99.90;;;;;;5068477;28;19923;-77
2021/06/12 10:47:36;;;;;;;;;;;22.20;99.90;;;;;;5065528;28;20392;-81
2021/06/12 10:50:39;;;;;;;;;;;;;;;;;;;;;
2021/06/12 10:53:14;;;;;;;;;;;22.40;99.90;;;;;;5055794;28;19908;-78
2021/06/12 10:55:44;;;;;;;;;;;22.30;99.90;;;;;;5068209;28;19974;-77
2021/06/12 10:58:28;;;;;;;;;;;22.20;99.90;;;;;;5045727;28;20430;-77
2021/06/12 11:01:05;;;;;;;;;;;22.00;99.90;;;;;;5065921;28;19908;-79
2021/06/12 11:03:41;;;;;;;;;;;22.00;99.90;;;;;;5070019;28;19919;-79
2021/06/12 11:06:30;;;;;;;;;;;22.00;99.90;;;;;;5070836;28;19913;-77
2021/06/12 11:09:18;;;;;;;;;;;22.00;99.90;;;;;;5069436;28;19908;-78
2021/06/12 11:11:43;;;;;;;;;;;22.00;99.90;;;;;;5064016;28;19912;-79
2021/06/12 11:14:35;;;;;;;;;;;22.10;99.90;;;;;;5068118;28;19962;-79
2021/06/12 11:19:42;;;;;;;;;;;22.30;99.90;;;;;;5069848;28;19909;-79
2021/06/12 11:22:23;;;;;;;;;;;22.50;99.30;;;;;;5068044;28;20374;-78
2021/06/12 11:24:53;;;;;;;;;;;22.60;98.70;;;;;;5067893;28;19965;-77
2021/06/12 11:27:32;;;;;;;;;;;22.80;97.00;;;;;;5068904;28;20028;-79
2021/06/12 11:30:16;;;;;;;;;;;23.00;97.10;;;;;;5063826;28;20283;-79
2021/06/12 11:32:43;;;;;;;;;;;23.10;95.40;;;;;;5065889;28;19920;-79
2021/06/12 11:35:09;;;;;;;;;;;23.30;93.80;;;;;;5067568;28;19908;-78
2021/06/12 11:37:35;;;;;;;;;;;23.30;93.60;;;;;;5061788;28;19917;-78
2021/06/12 11:40:06;;;;;;;;;;;23.50;93.10;;;;;;5067518;28;20424;-78
2021/06/12 11:42:47;;;;;;;;;;;23.60;92.70;;;;;;5066799;28;19920;-79
2021/06/12 11:45:13;;;;;;;;;;;23.60;91.80;;;;;;5069799;28;19908;-81
2021/06/12 11:47:38;;;;;;;;;;;23.40;91.50;;;;;;5068836;28;20698;-79
2021/06/12 11:50:04;;;;;;;;;;;23.00;90.40;;;;;;5068816;28;19913;-78
2021/06/12 11:52:40;;;;;;;;;;;22.80;90.40;;;;;;5069786;28;19912;-79
2021/06/12 11:55:19;;;;;;;;;;;22.70;91.10;;;;;;5060402;28;20353;-79
2021/06/12 11:57:46;;;;;;;;;;;22.50;91.50;;;;;;5062008;28;19920;-79
2021/06/12 12:00:25;;;;;;;;;;;22.40;91.40;;;;;;5069044;28;19919;-81
2021/06/12 12:03:00;;;;;;;;;;;22.30;90.70;;;;;;5069089;28;19923;-80
2021/06/12 12:05:32;;;;;;;;;;;22.40;91.30;;;;;;5067951;28;19920;-80
2021/06/12 12:07:58;;;;;;;;;;;22.30;91.40;;;;;;5064033;28;19915;-79
2021/06/12 12:10:33;;;;;;;;;;;22.20;91.80;;;;;;5067645;28;20286;-80
2021/06/12 12:12:59;;;;;;;;;;;22.00;91.20;;;;;;5066022;28;19951;-81
2021/06/12 12:15:35;;;;;;;;;;;21.40;94.70;;;;;;5065435;28;19973;-80
2021/06/12 12:18:01;;;;;;;;;;;20.80;96.90;;;;;;5063983;28;19958;-79
2021/06/12 12:20:26;;;;;;;;;;;20.30;99.40;;;;;;5066676;28;20464;-81
2021/06/12 12:22:52;;;;;;;;;;;19.90;99.90;;;;;;5066747;28;19923;-80
2021/06/12 12:25:33;;;;;;;;;;;19.70;99.90;;;;;;5066610;28;20330;-81
2021/06/12 12:28:04;;;;;;;;;;;19.50;99.90;;;;;;5063971;28;20004;-89
2021/06/12 12:30:30;;;;;;;;;;;19.30;99.90;;;;;;5068799;28;19912;-88
2021/06/12 12:33:04;;;;;;;;;;;19.30;99.90;;;;;;5058211;28;20500;-87
2021/06/12 12:35:30;;;;;;;;;;;19.20;99.90;;;;;;5060351;28;19935;-89
2021/06/12 12:37:55;;;;;;;;;;;19.30;99.90;;;;;;5061626;28;19916;-89
2021/06/12 12:40:22;;;;;;;;;;;19.20;99.90;;;;;;5069351;28;19913;-88
2021/06/12 12:42:59;;;;;;;;;;;19.30;99.90;;;;;;5068028;28;19962;-87
2021/06/12 12:46:09;;;;;;;;;;;19.40;99.90;;;;;;5068070;28;19908;-88
2021/06/12 12:48:35;;;;;;;;;;;19.60;99.90;;;;;;5059107;28;19951;-86
2021/06/12 12:51:00;;;;;;;;;;;19.50;99.90;;;;;;5064582;28;19916;-87
2021/06/12 12:53:25;;;;;;;;;;;19.50;99.90;;;;;;5067910;28;19912;-79
2021/06/12 12:55:55;;;;;;;;;;;19.60;99.90;;;;;;5070214;28;19966;-80
2021/06/12 12:58:27;;;;;;;;;;;19.60;99.90;;;;;;5072472;28;19912;-80
2021/06/12 13:01:14;;;;;;;;;;;19.70;99.90;;;;;;5071301;28;19913;-80
2021/06/12 13:03:47;;;;;;;;;;;19.80;99.90;;;;;;5071214;28;20415;-80
2021/06/12 13:06:31;;;;;;;;;;;20.00;99.90;;;;;;5062780;28;19943;-79
2021/06/12 13:09:06;;;;;;;;;;;20.10;99.90;;;;;;5079436;28;20485;-79
2021/06/12 13:11:46;;;;;;;;;;;20.10;99.90;;;;;;5052679;28;20001;-80
2021/06/12 13:14:28;;;;;;;;;;;19.80;99.90;;;;;;5071692;28;19944;-80
2021/06/12 13:17:04;;;;;;;;;;;19.70;99.90;;;;;;5070659;28;19908;-79
2021/06/12 13:19:31;;;;;;;;;;;19.50;99.90;;;;;;5072477;28;19963;-80
2021/06/12 13:21:56;;;;;;;;;;;19.50;99.90;;;;;;5070505;28;19908;-80
2021/06/12 13:24:22;;;;;;;;;;;19.40;99.90;;;;;;5072787;28;19919;-79
2021/06/12 13:26:47;;;;;;;;;;;19.40;99.90;;;;;;5066289;28;19912;-81
2021/06/12 13:29:20;;;;;;;;;;;19.30;99.90;;;;;;5064069;28;19912;-80
2021/06/12 13:34:35;;;;;;;;;;;19.30;99.90;;;;;;5025914;28;19973;-80
2021/06/12 13:37:03;;;;;;;;;;;19.30;99.90;;;;;;5069295;28;19995;-82
2021/06/12 13:39:28;;;;;;;;;;;19.40;99.90;;;;;;5072090;28;19908;-79
2021/06/12 13:42:04;;;;;;;;;;;19.50;99.90;;;;;;5072547;28;20065;-81
2021/06/12 13:44:30;;;;;;;;;;;19.50;99.90;;;;;;5066626;28;19981;-84
2021/06/12 13:46:55;;;;;;;;;;;19.60;99.90;;;;;;5071895;28;19936;-78
2021/06/12 13:49:21;;;;;;;;;;;19.80;99.90;;;;;;5071490;28;19927;-74
2021/06/12 13:51:46;;;;;;;;;;;20.00;99.90;;;;;;5071381;28;19928;-77
2021/06/12 13:54:11;;;;;;;;;;;20.40;99.90;;;;;;5069987;28;19916;-72
2021/06/12 13:56:41;;;;;;;;;;;20.60;99.90;;;;;;5070489;28;19931;-72
2021/06/12 13:59:07;;;;;;;;;;;20.70;99.90;;;;;;5069752;28;19917;-72
2021/06/12 14:01:32;;;;;;;;;;;20.80;99.90;;;;;;5070587;28;19909;-73
2021/06/12 14:03:58;;;;;;;;;;;20.70;99.90;;;;;;5071227;28;20317;-72
2021/06/12 14:06:23;;;;;;;;;;;20.60;99.90;;;;;;5071187;28;19919;-73
2021/06/12 14:08:49;;;;;;;;;;;20.60;99.90;;;;;;5071732;28;19904;-73
2021/06/12 14:11:14;;;;;;;;;;;20.50;99.90;;;;;;5072038;28;19909;-73
2021/06/12 14:13:46;;;;;;;;;;;20.50;99.90;;;;;;5070509;28;19969;-73
2021/06/12 14:16:11;;;;;;;;;;;20.50;99.90;;;;;;5051498;28;20299;-73
2021/06/12 14:18:37;;;;;;;;;;;20.60;99.90;;;;;;5070895;28;19969;-73
2021/06/12 14:21:03;;;;;;;;;;;20.70;99.90;;;;;;5069465;28;19905;-74
2021/06/12 14:23:29;;;;;;;;;;;20.70;98.70;;;;;;5065375;28;20339;-73
2021/06/12 14:25:54;;;;;;;;;;;20.70;99.00;;;;;;5070934;28;19915;-74
2021/06/12 14:28:24;;;;;;;;;;;20.90;97.90;;;;;;5071275;28;19999;-74
2021/06/12 14:30:49;;;;;;;;;;;20.90;97.40;;;;;;5071213;28;19912;-73